Airfield :







YOU CAN JOIN US ON...

 
LOGIN :

Register | Disclaimer

   EN    FR    IT 

 









Legend :    VFR   Marginal VFR   IFR   Intensive IFR   Very Intensive IFR
Visi :
Ceiling :
>= 8 km
>= 3000ft
5 to 8 km
1000 to 3000 ft
1500m to 5 km
500 to 1000 ft
800 to 1500m
200 to 500 ft
< 800m
< 200 ft
Symbols :   Thunderstorms  Fog  Heavy snow  Heavy precipitations  Wind > 20 kt






- Airport Elevation : 333 ft


KWVL - Waterville Robert Lafleur

CURRENT METAR :
  • 092015Z AUTO 05005KT 1 1/4SM -RA BR OVC005 04/04 A2992 RMK AO2 CIG 002V007 PRESFR P0006

EXPIRED METARs :
  • 091956Z AUTO 04005KT 1SM -RA BR OVC003 04/04 A2995 RMK AO2 CIG 002V006 PRESFR SLP171 P0010 T00440044
  • 091943Z AUTO 04003KT 1SM -RA BR OVC006 04/04 A2997 RMK AO2 CIG 002V009 P0007
  • 091935Z AUTO 00000KT 2SM RA BR OVC006 04/04 A2998 RMK AO2 CIG 002V009 P0003
  • 091926Z AUTO VRB03KT 1/4SM RA FG OVC004 04/04 A2997 RMK AO2 CIG 002V009 PRESFR P0002
  • 091856Z AUTO 00000KT 1/4SM -RA FG OVC002 04/04 A3001 RMK AO2 SLP193 P0002 T00390039
  • 091811Z AUTO 00000KT 1/4SM -RA FG OVC002 03/03 A3005 RMK AO2 P0000
  • 091756Z AUTO 00000KT 1/2SM -RA FG OVC002 03/03 A3006 RMK AO2 RAB19 SLP211 P0000 60001 T00330033 10044 20006 56036
  • 091735Z AUTO 00000KT 1SM -RA BR OVC002 04/03 A3008 RMK AO2 RAB19 P0000
  • 091722Z AUTO VRB03KT 1 3/4SM -RA BR OVC004 04/03 A3009 RMK AO2 RAB19 P0000

TAF N/A



MET'MAP, your aeronautical weather chart ! - Copyright ORBIFLY December 2007 - Disclaimer

ORBIFLY MET'MAP TEAM :

Programming & Development : Alexandra Zaïnal
Concept & original design : Baudouin d'Aumeries
Assistance for programming : Marc-Olivier Méhu
Technical & hardware support : Manuel Goepfert

Contact : metmap@orbifly.com




SOURCES & CREDITS :

   NOAA